Time;durP1;ratioP1;P1;durP2;ratioP2;P2;SDS_P1;SDS_P2;PMS_P1;PMS_P2;Temp;Humidity;BMP_temperature;BMP_pressure;BME280_temperature;BME280_humidity;BME280_pressure;Samples;Min_cycle;Max_cycle;Signal;HPM_P1;HPM_P2
2023/05/19 00:00:06;;;;;;;5.40;2.97;;;;;;;12.62;100.00;99251.16;5089932;28;20229;-68
2023/05/19 00:02:34;;;;;;;2.50;2.30;;;;;;;12.78;100.00;99250.78;5089652;28;20223;-73
2023/05/19 00:05:01;;;;;;;6.73;3.17;;;;;;;12.72;100.00;99252.09;5089646;28;20217;-73
2023/05/19 00:07:31;;;;;;;4.60;3.10;;;;;;;12.80;100.00;99260.00;5089755;28;20199;-74
2023/05/19 00:09:58;;;;;;;2.50;2.13;;;;;;;12.80;100.00;99254.88;5089817;28;20290;-74
2023/05/19 00:12:27;;;;;;;3.87;2.90;;;;;;;12.72;100.00;99256.41;5089694;28;20212;-68
2023/05/19 00:14:54;;;;;;;6.10;3.37;;;;;;;12.72;100.00;99256.41;5089795;28;20228;-68
2023/05/19 00:17:22;;;;;;;2.90;2.23;;;;;;;12.68;100.00;99251.53;5089884;28;20687;-73
2023/05/19 00:19:49;;;;;;;2.80;2.43;;;;;;;12.56;100.00;99259.34;5089800;28;20228;-74
2023/05/19 00:22:16;;;;;;;2.87;2.50;;;;;;;12.60;100.00;99253.06;5089272;28;20240;-68
2023/05/19 00:24:43;;;;;;;3.80;2.93;;;;;;;12.60;100.00;99253.06;5089678;28;20220;-68
2023/05/19 00:27:09;;;;;;;2.57;2.00;;;;;;;12.63;100.00;99258.75;5089698;28;20197;-73
2023/05/19 00:29:38;;;;;;;3.37;2.67;;;;;;;12.69;100.00;99272.84;5089568;28;20271;-73
2023/05/19 00:32:05;;;;;;;3.50;2.23;;;;;;;12.56;100.00;99262.72;5089533;28;20215;-68
2023/05/19 00:34:32;;;;;;;6.53;3.00;;;;;;;12.57;100.00;99258.44;5089269;28;20217;-68
2023/05/19 00:36:59;;;;;;;2.70;2.13;;;;;;;12.50;100.00;99267.50;5089436;28;20257;-68
2023/05/19 00:39:26;;;;;;;4.03;2.70;;;;;;;12.55;100.00;99273.13;5089581;28;20576;-68
2023/05/19 00:41:53;;;;;;;3.27;2.97;;;;;;;12.51;100.00;99266.56;5089759;28;20237;-68
2023/05/19 00:44:19;;;;;;;5.00;3.27;;;;;;;12.58;100.00;99271.13;5089347;28;20229;-74
2023/05/19 00:46:48;;;;;;;3.40;2.60;;;;;;;12.55;100.00;99270.53;5089520;28;20299;-68
2023/05/19 00:49:15;;;;;;;8.90;3.63;;;;;;;12.49;100.00;99271.84;5089293;28;20224;-69
2023/05/19 00:51:41;;;;;;;4.50;3.10;;;;;;;12.50;100.00;99267.50;5089588;28;20295;-68
2023/05/19 00:54:09;;;;;;;4.03;2.63;;;;;;;12.48;100.00;99269.38;5089427;28;20220;-68
2023/05/19 00:56:35;;;;;;;2.63;2.13;;;;;;;12.60;100.00;99269.25;5089230;28;20302;-68
2023/05/19 00:59:03;;;;;;;4.33;2.57;;;;;;;12.57;100.00;99269.50;5089208;28;20256;-70
2023/05/19 01:01:31;;;;;;;4.43;2.60;;;;;;;12.55;100.00;99265.41;5091097;28;20235;-68
2023/05/19 01:03:59;;;;;;;2.67;2.07;;;;;;;12.50;100.00;99262.38;5092969;28;20711;-68
2023/05/19 01:06:28;;;;;;;3.87;2.33;;;;;;;12.54;100.00;99266.38;5092673;28;20207;-68
2023/05/19 01:08:56;;;;;;;3.80;2.93;;;;;;;12.65;100.00;99263.75;5092872;28;20703;-74
2023/05/19 01:11:23;;;;;;;3.60;2.83;;;;;;;12.59;100.00;99262.47;5092962;28;20205;-73
2023/05/19 01:13:51;;;;;;;4.37;3.07;;;;;;;12.52;100.00;99260.53;5092855;28;20602;-74
2023/05/19 01:16:25;;;;;;;2.83;2.03;;;;;;;12.43;100.00;99257.72;5092899;28;20208;-68
2023/05/19 01:19:00;;;;;;;3.83;2.77;;;;;;;12.39;100.00;99261.47;5092493;28;20792;-73
2023/05/19 01:22:05;;;;;;;4.93;2.80;;;;;;;12.43;100.00;99252.59;5092409;28;20236;-74
2023/05/19 01:25:19;;;;;;;3.77;2.40;;;;;;;12.27;100.00;99270.09;5092451;28;20215;-74
2023/05/19 01:28:07;;;;;;;3.23;2.57;;;;;;;12.29;100.00;99265.66;5064920;28;20724;-68
2023/05/19 01:30:37;;;;;;;6.73;3.47;;;;;;;12.24;100.00;99263.44;5092698;28;20202;-73
2023/05/19 01:33:07;;;;;;;2.90;2.50;;;;;;;12.31;100.00;99268.94;5092368;28;20229;-74
2023/05/19 01:35:36;;;;;;;3.20;2.13;;;;;;;12.35;100.00;99270.31;5092108;28;20201;-68
2023/05/19 01:38:05;;;;;;;4.77;3.17;;;;;;;12.28;100.00;99271.75;5092380;28;20196;-68
2023/05/19 01:40:33;;;;;;;4.40;2.67;;;;;;;12.31;100.00;99268.94;5092526;28;20203;-68
2023/05/19 01:43:01;;;;;;;3.93;2.27;;;;;;;12.35;100.00;99270.31;5092051;28;20235;-67
2023/05/19 01:45:29;;;;;;;5.30;3.13;;;;;;;12.32;100.00;99273.13;5092200;28;20265;-74
2023/05/19 01:47:59;;;;;;;3.27;2.10;;;;;;;12.42;100.00;99274.06;5091917;28;20288;-68
2023/05/19 01:50:27;;;;;;;3.23;2.20;;;;;;;12.26;100.00;99278.72;5092363;28;20236;-68
2023/05/19 01:52:54;;;;;;;3.33;2.30;;;;;;;12.23;100.00;99276.41;5091661;28;20207;-74
2023/05/19 01:55:22;;;;;;;1.87;1.73;;;;;;;12.30;100.00;99277.53;5092368;28;20203;-68
2023/05/19 01:58:01;;;;;;;3.63;2.80;;;;;;;12.37;100.00;99278.72;5091942;28;20296;-74
2023/05/19 02:00:34;;;;;;;3.93;3.10;;;;;;;12.30;100.00;99280.09;5091982;28;20636;-73
2023/05/19 02:03:12;;;;;;;3.83;2.60;;;;;;;12.29;100.00;99281.06;5091822;28;20234;-68
2023/05/19 02:05:53;;;;;;;3.93;2.37;;;;;;;12.29;100.00;99281.06;5091822;28;20197;-74
2023/05/19 02:08:26;;;;;;;3.20;2.90;;;;;;;12.34;100.00;99286.66;5091655;28;20306;-73
2023/05/19 02:11:00;;;;;;;3.17;2.40;;;;;;;12.34;100.00;99286.66;5091668;28;20278;-68
2023/05/19 02:13:31;;;;;;;3.53;2.63;;;;;;;12.29;100.00;99286.19;5090407;28;20222;-68
2023/05/19 02:16:04;;;;;;;3.13;2.13;;;;;;;12.31;100.00;99281.75;5091836;28;20192;-68
2023/05/19 02:18:32;;;;;;;4.10;2.70;;;;;;;12.36;100.00;99286.50;5091349;28;20217;-68
2023/05/19 02:20:59;;;;;;;2.53;2.17;;;;;;;12.30;100.00;99287.00;5091432;28;20650;-73
2023/05/19 02:23:26;;;;;;;3.47;2.67;;;;;;;12.21;100.00;99299.56;5091146;28;20218;-74
2023/05/19 02:25:53;;;;;;;4.73;3.00;;;;;;;12.20;100.00;99302.25;5091287;28;20204;-68
2023/05/19 02:28:20;;;;;;;4.40;3.37;;;;;;;12.13;100.00;99298.50;5091210;28;20229;-74
2023/05/19 02:30:46;;;;;;;4.33;3.10;;;;;;;12.04;100.00;99301.78;5091118;28;20219;-74
2023/05/19 02:33:13;;;;;;;3.80;2.67;;;;;;;12.10;100.00;99296.19;5090980;28;20711;-68
2023/05/19 02:35:41;;;;;;;4.13;2.53;;;;;;;12.10;100.00;99306.44;5091227;28;20204;-68
2023/05/19 02:38:08;;;;;;;3.77;2.70;;;;;;;12.04;100.00;99312.03;5090946;28;20290;-73
2023/05/19 02:40:35;;;;;;;2.37;1.97;;;;;;;11.98;100.00;99308.16;5091574;28;20263;-67
2023/05/19 02:43:02;;;;;;;6.87;2.40;;;;;;;11.96;100.00;99315.97;5090940;28;20768;-67
2023/05/19 02:45:29;;;;;;;8.57;3.10;;;;;;;12.00;100.00;99317.38;5091300;28;20626;-74
2023/05/19 02:47:56;;;;;;;3.83;2.57;;;;;;;12.02;100.00;99324.16;5090873;28;20262;-73
2023/05/19 02:50:22;;;;;;;3.83;2.30;;;;;;;12.04;100.00;99327.41;5091287;28;20709;-68
2023/05/19 02:52:52;;;;;;;3.13;2.03;;;;;;;12.09;100.00;99321.00;5090728;28;20199;-73
2023/05/19 02:55:19;;;;;;;3.73;2.43;;;;;;;12.07;100.00;99328.00;5091036;28;20211;-68
2023/05/19 02:57:46;;;;;;;3.33;3.00;;;;;;;12.02;100.00;99329.28;5090807;28;20571;-68
2023/05/19 03:00:13;;;;;;;3.23;2.77;;;;;;;12.02;100.00;99329.28;5091025;28;20194;-67
2023/05/19 03:02:42;;;;;;;3.50;2.57;;;;;;;11.98;100.00;99326.94;5090397;28;20233;-73
2023/05/19 03:05:10;;;;;;;3.63;2.57;;;;;;;12.11;100.00;99331.16;5090822;28;20196;-67
2023/05/19 03:07:37;;;;;;;5.83;3.10;;;;;;;12.10;100.00;99342.31;5090688;28;20195;-68
2023/05/19 03:10:07;;;;;;;3.30;2.20;;;;;;;12.07;100.00;99337.41;5090798;28;20668;-69
2023/05/19 03:12:33;;;;;;;8.70;2.83;;;;;;;11.96;100.00;99340.78;5090564;28;20211;-68
2023/05/19 03:15:00;;;;;;;4.17;2.73;;;;;;;11.94;100.00;99342.66;5090443;28;20227;-73
2023/05/19 03:17:32;;;;;;;3.17;2.23;;;;;;;11.95;100.00;99354.53;5090508;28;20663;-68
2023/05/19 03:19:59;;;;;;;4.33;3.17;;;;;;;11.91;100.00;99348.00;5090300;28;20248;-67
2023/05/19 03:22:26;;;;;;;5.17;3.13;;;;;;;11.87;100.00;99347.41;5089984;28;20236;-73
2023/05/19 03:24:53;;;;;;;4.00;2.30;;;;;;;11.92;100.00;99345.31;5090309;28;20596;-73
2023/05/19 03:27:21;;;;;;;5.30;3.30;;;;;;;11.96;100.00;99351.84;5090431;28;20686;-67
2023/05/19 03:29:48;;;;;;;4.60;2.77;;;;;;;11.95;100.00;99355.31;5090239;28;20423;-68
2023/05/19 03:32:15;;;;;;;3.13;2.43;;;;;;;12.05;100.00;99354.69;5090021;28;20210;-68
2023/05/19 03:34:42;;;;;;;4.30;2.67;;;;;;;11.99;100.00;99356.75;5089963;28;20612;-74
2023/05/19 03:37:09;;;;;;;4.63;3.33;;;;;;;12.04;100.00;99347.91;5090045;28;20242;-74
2023/05/19 03:39:36;;;;;;;5.83;3.53;;;;;;;11.99;100.00;99358.50;5089620;28;20226;-74
2023/05/19 03:42:03;;;;;;;4.53;2.80;;;;;;;12.03;100.00;99356.53;5090113;28;20230;-73
2023/05/19 03:44:31;;;;;;;3.93;2.57;;;;;;;12.07;100.00;99352.78;5090114;28;20217;-67
2023/05/19 03:46:58;;;;;;;3.37;2.60;;;;;;;12.11;100.00;99359.34;5090200;28;20212;-73
2023/05/19 03:49:25;;;;;;;3.70;2.37;;;;;;;12.13;100.00;99370.28;5089830;28;20281;-68
2023/05/19 03:51:51;;;;;;;3.63;2.27;;;;;;;12.11;100.00;99359.34;5090245;28;20219;-68
2023/05/19 03:54:19;;;;;;;3.10;2.70;;;;;;;12.16;100.00;99367.50;5089600;28;20218;-73
2023/05/19 03:56:46;;;;;;;3.13;2.57;;;;;;;12.17;100.00;99369.94;5089794;28;20739;-74
2023/05/19 03:59:13;;;;;;;3.43;2.43;;;;;;;12.20;100.00;99374.03;5089655;28;20698;-68
2023/05/19 04:01:41;;;;;;;3.87;2.70;;;;;;;12.26;100.00;99370.19;5089907;28;20226;-68
2023/05/19 04:04:08;;;;;;;6.60;2.47;;;;;;;12.28;100.00;99378.59;5089749;28;20223;-68
2023/05/19 04:06:35;;;;;;;4.40;3.07;;;;;;;12.29;100.00;99381.03;5089512;28;20204;-67
2023/05/19 04:09:02;;;;;;;3.67;2.73;;;;;;;12.36;100.00;99383.94;5089876;28;20640;-74
2023/05/19 04:11:29;;;;;;;5.60;3.30;;;;;;;12.35;100.00;99393.41;5089696;28;20203;-68
2023/05/19 04:13:56;;;;;;;5.87;3.07;;;;;;;12.41;100.00;99389.56;5089717;28;20219;-67
2023/05/19 04:16:23;;;;;;;4.60;3.40;;;;;;;12.49;100.00;99389.81;5089602;28;20191;-68
2023/05/19 04:18:51;;;;;;;6.83;3.63;;;;;;;12.52;100.00;99386.19;5089559;28;20225;-67
2023/05/19 04:21:17;;;;;;;2.60;2.37;;;;;;;12.61;100.00;99388.06;5089612;28;20206;-68
2023/05/19 04:23:44;;;;;;;3.50;2.93;;;;;;;12.63;100.00;99388.78;5088987;28;20359;-68
2023/05/19 04:26:13;;;;;;;3.83;2.90;;;;;;;12.64;100.00;99386.06;5089524;28;20198;-74
2023/05/19 04:28:41;;;;;;;3.23;2.33;;;;;;;12.75;100.00;99390.41;5089492;28;20685;-67
2023/05/19 04:31:09;;;;;;;4.20;2.77;;;;;;;12.83;100.00;99390.63;5089675;28;20208;-68
2023/05/19 04:33:36;;;;;;;3.00;2.00;;;;;;;12.98;100.00;99392.94;5089245;28;20700;-67
2023/05/19 04:36:07;;;;;;;4.17;2.77;;;;;;;13.02;100.00;99395.16;5090903;28;20191;-74
2023/05/19 04:38:35;;;;;;;4.37;2.87;;;;;;;13.17;100.00;99403.41;5093063;28;20216;-67
2023/05/19 04:41:02;;;;;;;6.90;3.23;;;;;;;13.21;100.00;99391.97;5093669;28;20291;-67
2023/05/19 04:43:30;;;;;;;4.10;2.77;;;;;;;13.25;100.00;99392.53;5093061;28;20238;-69
2023/05/19 04:45:58;;;;;;;4.00;2.63;;;;;;;13.42;100.00;99398.97;5093482;28;20212;-67
2023/05/19 04:48:24;;;;;;;6.23;3.77;;;;;;;13.53;100.00;99404.06;5093041;28;20217;-76
2023/05/19 04:50:52;;;;;;;4.40;3.30;;;;;;;13.53;100.00;99411.78;5093201;28;20202;-67
2023/05/19 04:53:20;;;;;;;4.83;3.03;;;;;;;13.69;100.00;99406.22;5093015;28;20225;-74
2023/05/19 04:55:47;;;;;;;3.23;2.77;;;;;;;13.75;100.00;99414.25;5092983;28;20208;-71
2023/05/19 04:58:15;;;;;;;5.83;3.30;;;;;;;13.87;100.00;99419.34;5092802;28;20217;-67
2023/05/19 05:00:42;;;;;;;5.33;3.47;;;;;;;13.98;100.00;99424.44;5092831;28;20206;-67
2023/05/19 05:03:09;;;;;;;7.03;3.80;;;;;;;14.12;100.00;99429.28;5092712;28;20234;-74
2023/05/19 05:05:36;;;;;;;6.37;3.67;;;;;;;14.30;100.00;99431.28;5093135;28;20246;-74
2023/05/19 05:08:03;;;;;;;6.17;3.37;;;;;;;14.46;100.00;99434.22;5092799;28;20258;-67
2023/05/19 05:10:31;;;;;;;4.50;3.20;;;;;;;14.68;100.00;99441.81;5093113;28;20689;-67
2023/05/19 05:12:59;;;;;;;6.23;3.60;;;;;;;14.81;100.00;99445.94;5092581;28;20736;-74
2023/05/19 05:15:28;;;;;;;6.10;3.47;;;;;;;14.97;100.00;99461.72;5093345;28;20610;-68
2023/05/19 05:17:56;;;;;;;6.47;3.27;;;;;;;15.04;100.00;99452.53;5092632;28;20201;-67
2023/05/19 05:20:23;;;;;;;6.93;3.73;;;;;;;15.12;100.00;99460.41;5093073;28;20212;-67
2023/05/19 05:22:51;;;;;;;6.87;4.57;;;;;;;15.19;100.00;99465.88;5092325;28;20303;-67
2023/05/19 05:25:19;;;;;;;5.80;4.00;;;;;;;15.17;100.00;99463.41;5092545;28;20253;-67
2023/05/19 05:27:47;;;;;;;8.77;4.03;;;;;;;15.48;100.00;99465.94;5092351;28;20661;-74
2023/05/19 05:30:14;;;;;;;7.97;4.60;;;;;;;15.68;100.00;99474.56;5092589;28;20210;-74
2023/05/19 05:32:41;;;;;;;7.07;4.20;;;;;;;15.79;100.00;99478.75;5092185;28;20206;-74
2023/05/19 05:35:08;;;;;;;7.20;4.30;;;;;;;16.10;100.00;99479.44;5092091;28;20222;-74
2023/05/19 05:37:35;;;;;;;11.30;4.97;;;;;;;15.76;100.00;99474.69;5092353;28;20199;-73
2023/05/19 05:40:03;;;;;;;10.20;4.70;;;;;;;16.14;100.00;99474.81;5092459;28;20277;-67
2023/05/19 05:42:30;;;;;;;6.33;4.03;;;;;;;16.44;100.00;99481.59;5092061;28;20239;-68
2023/05/19 05:44:58;;;;;;;6.60;4.20;;;;;;;16.68;100.00;99494.03;5092279;28;20219;-67
2023/05/19 05:47:25;;;;;;;9.37;5.03;;;;;;;16.71;100.00;99486.81;5092002;28;20219;-74
2023/05/19 05:49:53;;;;;;;9.63;4.47;;;;;;;16.97;100.00;99496.56;5092262;28;20221;-67
2023/05/19 05:52:22;;;;;;;8.00;4.67;;;;;;;17.02;100.00;99498.72;5091949;28;20267;-67
2023/05/19 05:54:49;;;;;;;7.57;3.97;;;;;;;17.35;100.00;99505.91;5092169;28;20215;-68
2023/05/19 05:57:16;;;;;;;7.37;4.47;;;;;;;17.57;100.00;99509.03;5092274;28;20562;-67
2023/05/19 05:59:44;;;;;;;9.93;4.63;;;;;;;17.35;100.00;99508.50;5091535;28;20219;-73
2023/05/19 06:02:12;;;;;;;8.00;4.20;;;;;;;17.75;100.00;99512.47;5091946;28;20202;-73
2023/05/19 06:04:39;;;;;;;7.73;4.00;;;;;;;17.48;100.00;99504.75;5091931;28;20211;-73
2023/05/19 06:07:06;;;;;;;5.53;3.50;;;;;;;17.71;100.00;99500.78;5091972;28;20644;-73
2023/05/19 06:09:33;;;;;;;5.83;3.53;;;;;;;18.07;100.00;99506.84;5091537;28;20220;-67
2023/05/19 06:12:00;;;;;;;7.63;3.93;;;;;;;18.47;100.00;99508.13;5091723;28;20211;-73
2023/05/19 06:14:26;;;;;;;5.83;3.77;;;;;;;18.28;100.00;99508.28;5091421;28;20720;-73
2023/05/19 06:16:53;;;;;;;7.50;4.20;;;;;;;18.49;100.00;99505.38;5091918;28;20644;-73
2023/05/19 06:19:23;;;;;;;4.37;3.30;;;;;;;18.67;100.00;99511.31;5091785;28;20217;-67
2023/05/19 06:21:50;;;;;;;6.53;3.77;;;;;;;18.80;100.00;99513.53;5091569;28;20197;-73
2023/05/19 06:24:17;;;;;;;7.17;3.87;;;;;;;18.65;100.00;99510.66;5091014;28;20237;-73
2023/05/19 06:26:44;;;;;;;5.77;3.57;;;;;;;18.97;100.00;99511.84;5091168;28;20205;-67
2023/05/19 06:29:11;;;;;;;4.83;3.50;;;;;;;19.13;100.00;99504.13;5091220;28;20254;-73
2023/05/19 06:31:38;;;;;;;5.17;3.70;;;;;;;19.18;100.00;99511.44;5091242;28;20205;-67
2023/05/19 06:34:04;;;;;;;8.17;4.30;;;;;;;19.33;100.00;99514.25;5091271;28;20261;-73
2023/05/19 06:36:34;;;;;;;6.47;3.87;;;;;;;19.19;100.00;99516.47;5091052;28;20196;-73
2023/05/19 06:39:00;;;;;;;5.77;3.93;;;;;;;19.16;100.00;99509.00;5090907;28;20223;-72
2023/05/19 06:41:27;;;;;;;10.47;3.90;;;;;;;19.20;100.00;99514.72;5090961;28;20199;-67
2023/05/19 06:43:54;;;;;;;4.80;3.63;;;;;;;18.82;100.00;99510.78;5090834;28;20231;-73
2023/05/19 06:46:21;;;;;;;7.63;4.10;;;;;;;19.32;100.00;99518.66;5091070;28;20207;-67
2023/05/19 06:48:48;;;;;;;5.00;3.33;;;;;;;19.27;100.00;99514.91;5090877;28;20276;-72
2023/05/19 06:51:20;;;;;;;5.83;3.53;;;;;;;19.25;100.00;99522.00;5089477;28;20680;-67
2023/05/19 06:53:48;;;;;;;9.03;4.00;;;;;;;19.47;100.00;99516.25;5090781;28;20224;-72
2023/05/19 06:56:15;;;;;;;6.47;3.83;;;;;;;19.68;100.00;99527.03;5090980;28;20201;-72
2023/05/19 06:58:42;;;;;;;5.90;3.73;;;;;;;20.19;100.00;99531.31;5089925;28;20230;-72
2023/05/19 07:01:09;;;;;;;6.77;4.53;;;;;;;20.71;98.61;99531.00;5090717;28;20201;-67
2023/05/19 07:03:36;;;;;;;6.73;3.83;;;;;;;20.61;97.20;99531.19;5090348;28;20323;-67
2023/05/19 07:06:03;;;;;;;9.50;4.10;;;;;;;21.05;98.45;99532.53;5090616;28;20198;-67
2023/05/19 07:08:29;;;;;;;6.93;4.32;;;;;;;21.31;95.32;99527.88;5090341;28;20242;-72
2023/05/19 07:10:57;;;;;;;5.68;3.92;;;;;;;21.23;96.96;99525.31;5090715;28;20198;-72
2023/05/19 07:13:24;;;;;;;5.80;3.72;;;;;;;21.58;89.06;99525.84;5090381;28;20232;-67
2023/05/19 07:15:54;;;;;;;5.63;3.78;;;;;;;21.38;93.22;99522.84;5090405;28;20295;-72
2023/05/19 07:18:21;;;;;;;5.68;3.42;;;;;;;21.37;90.91;99531.63;5090429;28;20663;-67
2023/05/19 07:20:48;;;;;;;5.68;3.50;;;;;;;21.94;89.85;99528.72;5090378;28;20197;-67
2023/05/19 07:23:15;;;;;;;6.53;3.60;;;;;;;21.97;86.89;99527.56;5089891;28;20245;-73
2023/05/19 07:25:41;;;;;;;4.70;3.65;;;;;;;21.97;86.80;99533.59;5090114;28;20666;-67
2023/05/19 07:28:09;;;;;;;5.60;3.30;;;;;;;22.08;85.51;99530.56;5090138;28;20214;-67
2023/05/19 07:30:37;;;;;;;5.93;3.55;;;;;;;22.44;81.83;99535.19;5090475;28;20201;-72
2023/05/19 07:33:05;;;;;;;8.20;4.18;;;;;;;22.15;83.90;99531.47;5090097;28;20222;-72
2023/05/19 07:35:32;;;;;;;6.63;3.72;;;;;;;22.47;85.42;99528.81;5089886;28;20194;-67
2023/05/19 07:37:59;;;;;;;8.82;4.47;;;;;;;22.54;85.92;99532.31;5090185;28;20224;-72
2023/05/19 07:40:25;;;;;;;6.38;3.65;;;;;;;22.95;85.22;99531.94;5090274;28;20206;-67
2023/05/19 07:42:52;;;;;;;10.05;3.88;;;;;;;23.46;82.88;99529.38;5089838;28;20234;-67
2023/05/19 07:45:20;;;;;;;7.20;4.10;;;;;;;22.13;81.18;99537.84;5090117;28;20198;-70
2023/05/19 07:47:47;;;;;;;7.50;4.53;;;;;;;22.23;86.12;99528.06;5089892;28;20202;-72
2023/05/19 07:50:15;;;;;;;4.30;3.20;;;;;;;22.49;85.17;99532.06;5090096;28;20262;-72
2023/05/19 07:52:42;;;;;;;6.53;4.30;;;;;;;23.12;81.24;99532.56;5089803;28;20200;-67
2023/05/19 07:55:08;;;;;;;6.70;3.80;;;;;;;23.31;80.74;99536.44;5089695;28;20214;-72
2023/05/19 07:57:35;;;;;;;5.10;3.60;;;;;;;23.40;82.69;99545.78;5089948;28;20197;-72
2023/05/19 08:00:06;;;;;;;6.32;3.80;;;;;;;23.92;82.65;99539.53;5090033;28;20735;-67
2023/05/19 08:02:34;;;;;;;5.80;3.80;;;;;;;24.25;75.65;99549.47;5089948;28;20212;-67
2023/05/19 08:05:01;;;;;;;5.07;3.33;;;;;;;24.39;74.34;99540.75;5089689;28;20218;-72
2023/05/19 08:07:28;;;;;;;4.72;3.08;;;;;;;24.55;74.12;99545.75;5090251;28;20674;-67
2023/05/19 08:09:54;;;;;;;6.43;3.83;;;;;;;24.44;75.44;99538.41;5089882;28;20218;-67
2023/05/19 08:12:21;;;;;;;7.07;4.30;;;;;;;23.79;80.78;99540.19;5093520;28;20213;-72
2023/05/19 08:14:48;;;;;;;6.65;4.10;;;;;;;23.95;77.32;99544.41;5093668;28;20222;-72
2023/05/19 08:17:15;;;;;;;7.70;3.92;;;;;;;24.37;78.29;99542.75;5093763;28;20326;-67
2023/05/19 08:19:43;;;;;;;7.13;3.90;;;;;;;24.31;76.07;99548.72;5093882;28;20488;-66
2023/05/19 08:22:10;;;;;;;4.85;3.40;;;;;;;24.37;81.12;99542.75;5093776;28;20246;-70
2023/05/19 08:24:37;;;;;;;5.07;3.70;;;;;;;24.39;78.98;99546.78;5093771;28;20234;-72
2023/05/19 08:27:05;;;;;;;8.15;4.40;;;;;;;24.87;77.42;99547.94;5093766;28;20678;-72
2023/05/19 08:29:32;;;;;;;8.95;4.20;;;;;;;25.15;74.89;99540.06;5093430;28;20710;-67
2023/05/19 08:31:59;;;;;;;5.55;4.00;;;;;;;25.05;68.58;99550.88;5093718;28;20225;-67
2023/05/19 08:34:26;;;;;;;6.30;3.75;;;;;;;24.69;69.33;99553.66;5093530;28;20666;-67
2023/05/19 08:36:56;;;;;;;8.07;4.35;;;;;;;24.57;74.21;99542.94;5093225;28;20202;-72
2023/05/19 08:39:25;;;;;;;6.28;4.05;;;;;;;24.13;74.53;99546.56;5093603;28;20272;-67
2023/05/19 08:41:53;;;;;;;5.95;4.07;;;;;;;24.22;76.25;99555.88;5093578;28;20198;-72
2023/05/19 08:44:20;;;;;;;6.20;4.07;;;;;;;24.84;70.89;99559.59;5093400;28;20605;-67
2023/05/19 08:46:47;;;;;;;6.82;4.10;;;;;;;25.17;78.17;99545.94;5093311;28;20198;-72
2023/05/19 08:49:16;;;;;;;7.63;4.53;;;;;;;25.74;68.67;99544.69;5093176;28;20218;-67
2023/05/19 08:51:50;;;;;;;6.00;3.75;;;;;;;26.32;66.77;99550.25;5093109;28;20194;-72
2023/05/19 08:54:19;;;;;;;5.28;3.40;;;;;;;25.54;72.52;99544.69;5092975;28;20222;-67
2023/05/19 08:56:47;;;;;;;7.68;3.83;;;;;;;25.52;76.86;99542.25;5093121;28;20198;-67
2023/05/19 08:59:14;;;;;;;7.53;3.80;;;;;;;25.55;63.04;99545.47;5092833;28;20271;-72
2023/05/19 09:01:44;;;;;;;10.35;4.45;;;;;;;26.11;66.98;99539.97;5092886;28;20198;-72
2023/05/19 09:04:11;;;;;;;6.57;4.15;;;;;;;25.88;68.30;99538.53;5092907;28;20666;-67
2023/05/19 09:06:39;;;;;;;6.80;4.00;;;;;;;25.25;70.62;99530.06;5093147;28;20198;-67
2023/05/19 09:09:07;;;;;;;6.03;3.97;;;;;;;25.88;74.43;99529.84;5092905;28;20372;-72
2023/05/19 09:11:36;;;;;;;5.78;3.90;;;;;;;26.08;69.32;99530.69;5092799;28;20640;-72
2023/05/19 09:14:03;;;;;;;6.00;4.05;;;;;;;25.55;67.87;99535.81;5092798;28;20263;-67
2023/05/19 09:16:31;;;;;;;6.30;4.20;;;;;;;25.00;67.26;99527.09;5092884;28;20261;-72
2023/05/19 09:18:59;;;;;;;7.50;4.13;;;;;;;25.17;66.20;99533.66;5092721;28;20279;-68
2023/05/19 09:21:33;;;;;;;6.07;3.75;;;;;;;24.69;71.74;99535.38;5092281;28;20191;-68
2023/05/19 09:24:04;;;;;;;5.93;3.50;;;;;;;25.65;76.92;99524.94;5092485;28;20244;-67
2023/05/19 09:26:38;;;;;;;5.40;3.53;;;;;;;25.76;67.58;99527.00;5092811;28;20198;-72
2023/05/19 09:29:12;;;;;;;6.07;3.92;;;;;;;25.27;63.40;99522.81;5092687;28;20245;-67
2023/05/19 09:31:39;;;;;;;7.85;3.88;;;;;;;24.98;70.07;99529.09;5092379;28;20281;-67
2023/05/19 09:34:12;;;;;;;6.35;3.67;;;;;;;24.68;69.15;99533.75;5092475;28;20218;-71
2023/05/19 09:36:40;;;;;;;6.35;4.38;;;;;;;25.04;66.01;99523.09;5092314;28;20634;-72
2023/05/19 09:39:13;;;;;;;5.95;3.75;;;;;;;25.22;72.92;99525.19;5092328;28;20323;-72
2023/05/19 09:41:42;;;;;;;6.07;3.47;;;;;;;26.24;63.86;99529.50;5092273;28;20230;-72
2023/05/19 09:44:13;;;;;;;6.05;3.67;;;;;;;26.54;65.65;99529.09;5092035;28;20256;-67
2023/05/19 09:46:47;;;;;;;6.25;4.18;;;;;;;25.87;71.08;99534.28;5092074;28;20195;-67
2023/05/19 09:49:20;;;;;;;6.38;3.50;;;;;;;25.48;74.40;99530.56;5092087;28;20213;-67
2023/05/19 09:51:49;;;;;;;5.47;3.95;;;;;;;25.56;70.92;99528.75;5092119;28;20198;-72
2023/05/19 09:54:16;;;;;;;7.40;3.72;;;;;;;26.08;62.83;99532.50;5091699;28;20551;-72
2023/05/19 09:56:44;;;;;;;6.22;3.83;;;;;;;26.04;70.06;99528.69;5092125;28;20271;-72
2023/05/19 09:59:14;;;;;;;5.88;4.10;;;;;;;26.38;60.69;99528.50;5092042;28;20658;-67
2023/05/19 10:01:45;;;;;;;5.28;3.65;;;;;;;26.52;61.53;99531.13;5091885;28;20723;-72
2023/05/19 10:04:13;;;;;;;7.53;4.07;;;;;;;26.02;65.72;99528.06;5091833;28;20319;-69
2023/05/19 10:06:40;;;;;;;6.07;4.05;;;;;;;26.68;70.95;99522.81;5091804;28;20276;-67
2023/05/19 10:09:07;;;;;;;5.53;3.67;;;;;;;26.66;61.52;99526.66;5091766;28;20712;-67
2023/05/19 10:11:34;;;;;;;7.32;4.30;;;;;;;26.55;59.48;99522.84;5091484;28;20286;-73
2023/05/19 10:14:04;;;;;;;5.68;3.50;;;;;;;25.58;61.27;99524.13;5091883;28;20753;-73
2023/05/19 10:16:32;;;;;;;14.13;5.85;;;;;;;26.22;55.33;99522.84;5091942;28;20628;-73
2023/05/19 10:19:00;;;;;;;9.48;4.15;;;;;;;26.28;59.07;99516.78;5091544;28;20271;-73
2023/05/19 10:21:27;;;;;;;10.70;3.92;;;;;;;26.58;51.74;99519.81;5091410;28;20282;-73
2023/05/19 10:23:54;;;;;;;6.72;4.70;;;;;;;26.46;58.07;99510.91;5091242;28;20276;-73
2023/05/19 10:26:22;;;;;;;5.82;3.58;;;;;;;26.63;56.62;99514.75;5091455;28;20240;-73
2023/05/19 10:28:51;;;;;;;7.88;3.97;;;;;;;26.83;54.72;99509.47;5091278;28;20226;-67
2023/05/19 10:31:22;;;;;;;8.10;4.45;;;;;;;26.24;53.22;99507.69;5091302;28;20194;-67
2023/05/19 10:34:14;;;;;;;5.72;3.25;;;;;;;26.16;52.16;99506.09;5090588;28;20244;-67
2023/05/19 10:36:46;;;;;;;5.47;3.53;;;;;;;26.28;57.33;99507.09;5091063;28;20285;-73
2023/05/19 10:39:18;;;;;;;4.88;3.42;;;;;;;26.40;57.93;99508.09;5091179;28;20694;-68
2023/05/19 10:41:58;;;;;;;12.43;3.78;;;;;;;26.55;54.22;99501.84;5091098;28;20216;-67
2023/05/19 10:44:37;;;;;;;5.68;3.53;;;;;;;26.80;57.73;99510.69;5091018;28;20230;-67
2023/05/19 10:47:10;;;;;;;5.85;3.78;;;;;;;26.69;53.31;99511.31;5091294;28;20643;-67
2023/05/19 10:49:38;;;;;;;6.25;3.72;;;;;;;26.51;53.28;99514.56;5090996;28;20214;-72
2023/05/19 10:52:20;;;;;;;8.27;3.95;;;;;;;26.38;53.88;99504.88;5091024;28;20194;-67
2023/05/19 10:54:47;;;;;;;6.50;4.32;;;;;;;26.70;62.10;99507.66;5090548;28;20213;-72
2023/05/19 10:57:15;;;;;;;5.10;3.28;;;;;;;26.77;58.46;99507.66;5090821;28;20587;-67
2023/05/19 10:59:44;;;;;;;5.35;3.50;;;;;;;26.31;51.40;99503.28;5090438;28;20307;-67
2023/05/19 11:02:39;;;;;;;5.22;3.50;;;;;;;26.25;59.15;99510.13;5090806;28;20644;-72
2023/05/19 11:05:11;;;;;;;11.88;4.57;;;;;;;26.13;53.85;99511.75;5090787;28;20237;-67
2023/05/19 11:07:42;;;;;;;6.38;3.58;;;;;;;26.24;61.40;99508.53;5090601;28;20260;-67
2023/05/19 11:10:09;;;;;;;6.43;4.28;;;;;;;26.56;62.03;99501.66;5090727;28;20214;-67
2023/05/19 11:12:44;;;;;;;5.80;3.97;;;;;;;26.55;66.28;99504.47;5090249;28;20217;-72
2023/05/19 11:15:15;;;;;;;5.97;3.70;;;;;;;26.49;56.35;99489.53;5090364;28;20202;-72
2023/05/19 11:17:48;;;;;;;11.20;4.20;;;;;;;26.18;57.70;99485.75;5090511;28;20403;-67
2023/05/19 11:20:22;;;;;;;4.72;3.00;;;;;;;26.24;59.09;99486.72;5090643;28;20198;-72
2023/05/19 11:23:04;;;;;;;5.05;3.40;;;;;;;26.50;59.13;99483.28;5090384;28;20296;-67
2023/05/19 11:25:41;;;;;;;6.80;4.30;;;;;;;26.53;55.93;99485.50;5090612;28;20609;-73
2023/05/19 11:28:10;;;;;;;5.68;3.70;;;;;;;26.21;54.71;99493.22;5090160;28;20221;-67
2023/05/19 11:30:38;;;;;;;9.18;3.15;;;;;;;26.30;57.21;99483.31;5090205;28;20209;-67
2023/05/19 11:33:06;;;;;;;7.95;3.45;;;;;;;26.39;62.94;99480.28;5089984;28;20233;-67
2023/05/19 11:35:33;;;;;;;5.38;3.97;;;;;;;26.77;55.67;99477.00;5090532;28;20202;-72